<?xml version='1.0' encoding='UTF-8'?>
<gpx xmlns="http://www.topografix.com/GPX/1/1" creator="www.balnam.be" version="1.1" xmlns:xsi="http://www.w3.org/2001/XMLSchema-instance" xsi:schemaLocation="http://www.topografix.com/GPX/1/1 http://www.topografix.com/GPX/1/1/gpx.xsd">
<trk>
<name>nvsvsLv524</name>
<cmt>r</cmt>
<desc>Vresse Chemin n°Lv524 Rue du Château / Rue de Petit-Fays / Rue Albert Raty / Rue de Vresse</desc>
<link href="https://chemins.be/vresse/chemin/Lv524"/><trkseg>
<trkpt lat="49.884491" lon="4.934175"><time>2026-05-02T20:36:54Z</time></trkpt>
<trkpt lat="49.884017" lon="4.935492"><time>2026-05-02T20:46:54Z</time></trkpt>
<trkpt lat="49.883670" lon="4.936545"><time>2026-05-02T20:56:54Z</time></trkpt>
<trkpt lat="49.882862" lon="4.936341"><time>2026-05-02T21:06:54Z</time></trkpt>
<trkpt lat="49.881839" lon="4.935925"><time>2026-05-02T21:16:54Z</time></trkpt>
<trkpt lat="49.881320" lon="4.937241"><time>2026-05-02T21:26:54Z</time></trkpt>
<trkpt lat="49.881312" lon="4.938702"><time>2026-05-02T21:36:54Z</time></trkpt>
<trkpt lat="49.881725" lon="4.940613"><time>2026-05-02T21:46:54Z</time></trkpt>
<trkpt lat="49.881885" lon="4.942799"><time>2026-05-02T21:56:54Z</time></trkpt>
<trkpt lat="49.881241" lon="4.943919"><time>2026-05-02T22:06:54Z</time></trkpt>
<trkpt lat="49.879315" lon="4.944424"><time>2026-05-02T22:16:54Z</time></trkpt>
<trkpt lat="49.878122" lon="4.943812"><time>2026-05-02T22:26:54Z</time></trkpt>
<trkpt lat="49.877619" lon="4.941955"><time>2026-05-02T22:36:54Z</time></trkpt>
<trkpt lat="49.877456" lon="4.940367"><time>2026-05-02T22:46:54Z</time></trkpt>
<trkpt lat="49.875611" lon="4.938940"><time>2026-05-02T22:56:54Z</time></trkpt>
<trkpt lat="49.873655" lon="4.938221"><time>2026-05-02T23:06:54Z</time></trkpt>
<trkpt lat="49.873462" lon="4.937176"><time>2026-05-02T23:16:54Z</time></trkpt>
</trkseg></trk>
<trk>
<name>nvsvsLv524</name>
<cmt>s</cmt>
<desc>Vresse Chemin n°Lv524 Rue du Château / Rue de Petit-Fays / Rue Albert Raty / Rue de Vresse</desc>
<link href="https://chemins.be/vresse/chemin/Lv524"/><trkseg>
<trkpt lat="49.873462" lon="4.937176"><time>2026-05-02T23:16:54Z</time></trkpt>
<trkpt lat="49.873451" lon="4.933934"><time>2026-05-02T23:26:54Z</time></trkpt>
<trkpt lat="49.873236" lon="4.931914"><time>2026-05-02T23:36:54Z</time></trkpt>
<trkpt lat="49.872696" lon="4.930294"><time>2026-05-02T23:46:54Z</time></trkpt>
<trkpt lat="49.872883" lon="4.928808"><time>2026-05-02T23:56:54Z</time></trkpt>
<trkpt lat="49.873323" lon="4.927102"><time>2026-05-03T00:06:54Z</time></trkpt>
</trkseg></trk>
<trk>
<name>nvsvsLv524</name>
<cmt>r</cmt>
<desc>Vresse Chemin n°Lv524 Rue du Château / Rue de Petit-Fays / Rue Albert Raty / Rue de Vresse</desc>
<link href="https://chemins.be/vresse/chemin/Lv524"/><trkseg>
<trkpt lat="49.873323" lon="4.927102"><time>2026-05-03T00:06:54Z</time></trkpt>
<trkpt lat="49.873607" lon="4.925992"><time>2026-05-03T00:16:54Z</time></trkpt>
<trkpt lat="49.876321" lon="4.920542"><time>2026-05-03T00:26:54Z</time></trkpt>
<trkpt lat="49.878175" lon="4.916529"><time>2026-05-03T00:36:54Z</time></trkpt>
<trkpt lat="49.878953" lon="4.913560"><time>2026-05-03T00:46:54Z</time></trkpt>
<trkpt lat="49.878669" lon="4.910858"><time>2026-05-03T00:56:54Z</time></trkpt>
<trkpt lat="49.877353" lon="4.909646"><time>2026-05-03T01:06:54Z</time></trkpt>
<trkpt lat="49.874323" lon="4.907887"><time>2026-05-03T01:16:54Z</time></trkpt>
<trkpt lat="49.870910" lon="4.907056"><time>2026-05-03T01:26:54Z</time></trkpt>
<trkpt lat="49.868520" lon="4.906695"><time>2026-05-03T01:36:54Z</time></trkpt>
</trkseg>
</trk>
</gpx>